sensor_id;sensor_type;location;lat;lon;timestamp;temperature;humidity
4406;DHT22;2216;53.806;11.598;2023-04-03T00:00:23;0.30;66.40
4406;DHT22;2216;53.806;11.598;2023-04-03T00:02:48;0.20;66.40
4406;DHT22;2216;53.806;11.598;2023-04-03T00:05:14;0.20;66.40
4406;DHT22;2216;53.806;11.598;2023-04-03T00:07:40;0.20;66.40
4406;DHT22;2216;53.806;11.598;2023-04-03T00:10:06;0.10;66.40
4406;DHT22;2216;53.806;11.598;2023-04-03T00:12:32;0.10;66.40
4406;DHT22;2216;53.806;11.598;2023-04-03T00:14:58;0.10;66.40
4406;DHT22;2216;53.806;11.598;2023-04-03T00:17:23;0.00;66.40
4406;DHT22;2216;53.806;11.598;2023-04-03T00:19:49;0.00;66.40
4406;DHT22;2216;53.806;11.598;2023-04-03T00:22:15;0.00;66.40
4406;DHT22;2216;53.806;11.598;2023-04-03T00:24:40;0.00;66.50
4406;DHT22;2216;53.806;11.598;2023-04-03T00:27:06;-0.10;66.40
4406;DHT22;2216;53.806;11.598;2023-04-03T00:29:32;-0.10;66.40
4406;DHT22;2216;53.806;11.598;2023-04-03T00:31:57;-0.10;66.50
4406;DHT22;2216;53.806;11.598;2023-04-03T00:34:23;-0.20;66.50
4406;DHT22;2216;53.806;11.598;2023-04-03T00:36:49;-0.20;66.50
4406;DHT22;2216;53.806;11.598;2023-04-03T00:39:14;-0.20;66.50
4406;DHT22;2216;53.806;11.598;2023-04-03T00:41:40;-0.20;66.50
4406;DHT22;2216;53.806;11.598;2023-04-03T00:47:01;-0.20;66.60
4406;DHT22;2216;53.806;11.598;2023-04-03T00:49:28;-0.20;66.60
4406;DHT22;2216;53.806;11.598;2023-04-03T00:51:54;-0.30;66.60
4406;DHT22;2216;53.806;11.598;2023-04-03T00:54:20;-0.30;66.60
4406;DHT22;2216;53.806;11.598;2023-04-03T00:56:46;-0.30;66.60
4406;DHT22;2216;53.806;11.598;2023-04-03T00:59:16;-0.30;66.70
4406;DHT22;2216;53.806;11.598;2023-04-03T01:01:48;-0.30;66.80
4406;DHT22;2216;53.806;11.598;2023-04-03T01:04:44;-0.40;66.70
4406;DHT22;2216;53.806;11.598;2023-04-03T01:07:12;-0.40;66.70
4406;DHT22;2216;53.806;11.598;2023-04-03T01:09:40;-0.40;66.70
4406;DHT22;2216;53.806;11.598;2023-04-03T01:12:23;-0.40;66.70
4406;DHT22;2216;53.806;11.598;2023-04-03T01:14:57;-0.40;66.80
4406;DHT22;2216;53.806;11.598;2023-04-03T01:25:57;-0.40;66.90
4406;DHT22;2216;53.806;11.598;2023-04-03T01:28:29;-0.50;66.80
4406;DHT22;2216;53.806;11.598;2023-04-03T01:33:57;-0.50;66.90
4406;DHT22;2216;53.806;11.598;2023-04-03T01:36:30;-0.50;66.90
4406;DHT22;2216;53.806;11.598;2023-04-03T01:38:58;-0.50;66.90
4406;DHT22;2216;53.806;11.598;2023-04-03T01:41:25;-0.50;66.90
4406;DHT22;2216;53.806;11.598;2023-04-03T01:43:51;-0.50;66.90
4406;DHT22;2216;53.806;11.598;2023-04-03T01:46:17;-0.50;67.70
4406;DHT22;2216;53.806;11.598;2023-04-03T01:48:44;-0.50;67.00
4406;DHT22;2216;53.806;11.598;2023-04-03T01:51:10;-0.50;67.00
4406;DHT22;2216;53.806;11.598;2023-04-03T01:53:36;-0.50;67.00
4406;DHT22;2216;53.806;11.598;2023-04-03T01:56:01;-0.50;67.00
4406;DHT22;2216;53.806;11.598;2023-04-03T01:58:27;-0.50;67.00
4406;DHT22;2216;53.806;11.598;2023-04-03T02:00:53;-0.60;66.90
4406;DHT22;2216;53.806;11.598;2023-04-03T02:03:19;-0.50;67.00
4406;DHT22;2216;53.806;11.598;2023-04-03T02:05:45;-0.60;67.00
4406;DHT22;2216;53.806;11.598;2023-04-03T02:08:10;-0.60;66.90
4406;DHT22;2216;53.806;11.598;2023-04-03T02:10:36;-0.60;67.00
4406;DHT22;2216;53.806;11.598;2023-04-03T02:13:02;-0.60;67.00
4406;DHT22;2216;53.806;11.598;2023-04-03T02:15:28;-0.60;67.10
4406;DHT22;2216;53.806;11.598;2023-04-03T02:17:54;-0.60;67.30
4406;DHT22;2216;53.806;11.598;2023-04-03T02:20:20;-0.60;67.20
4406;DHT22;2216;53.806;11.598;2023-04-03T02:22:46;-0.60;67.20
4406;DHT22;2216;53.806;11.598;2023-04-03T02:25:12;-0.60;67.20
4406;DHT22;2216;53.806;11.598;2023-04-03T02:27:38;-0.60;67.20
4406;DHT22;2216;53.806;11.598;2023-04-03T02:30:04;-0.50;67.30
4406;DHT22;2216;53.806;11.598;2023-04-03T02:32:31;-0.50;67.40
4406;DHT22;2216;53.806;11.598;2023-04-03T02:34:57;-0.50;67.40
4406;DHT22;2216;53.806;11.598;2023-04-03T02:37:22;-0.50;67.30
4406;DHT22;2216;53.806;11.598;2023-04-03T02:39:48;-0.50;67.40
4406;DHT22;2216;53.806;11.598;2023-04-03T02:42:14;-0.50;67.30
4406;DHT22;2216;53.806;11.598;2023-04-03T02:44:39;-0.50;67.30
4406;DHT22;2216;53.806;11.598;2023-04-03T02:47:05;-0.50;67.30
4406;DHT22;2216;53.806;11.598;2023-04-03T02:49:31;-0.50;67.30
4406;DHT22;2216;53.806;11.598;2023-04-03T02:51:57;-0.50;67.40
4406;DHT22;2216;53.806;11.598;2023-04-03T02:54:22;-0.40;67.60
4406;DHT22;2216;53.806;11.598;2023-04-03T02:56:50;-0.40;67.60
4406;DHT22;2216;53.806;11.598;2023-04-03T02:59:16;-0.40;67.70
4406;DHT22;2216;53.806;11.598;2023-04-03T03:01:42;-0.30;67.80
4406;DHT22;2216;53.806;11.598;2023-04-03T03:04:07;-0.30;67.90
4406;DHT22;2216;53.806;11.598;2023-04-03T03:06:33;-0.30;68.00
4406;DHT22;2216;53.806;11.598;2023-04-03T03:08:59;-0.20;68.10
4406;DHT22;2216;53.806;11.598;2023-04-03T03:11:25;-0.20;68.20
4406;DHT22;2216;53.806;11.598;2023-04-03T03:13:50;-0.20;68.40
4406;DHT22;2216;53.806;11.598;2023-04-03T03:16:16;-0.10;68.50
4406;DHT22;2216;53.806;11.598;2023-04-03T03:18:42;-0.10;68.50
4406;DHT22;2216;53.806;11.598;2023-04-03T03:21:09;0.00;68.80
4406;DHT22;2216;53.806;11.598;2023-04-03T03:23:35;0.10;68.60
4406;DHT22;2216;53.806;11.598;2023-04-03T03:26:06;0.10;68.60
4406;DHT22;2216;53.806;11.598;2023-04-03T03:28:33;0.20;68.40
4406;DHT22;2216;53.806;11.598;2023-04-03T03:31:00;0.20;68.50
4406;DHT22;2216;53.806;11.598;2023-04-03T03:33:26;0.20;68.50
4406;DHT22;2216;53.806;11.598;2023-04-03T03:35:53;0.30;68.80
4406;DHT22;2216;53.806;11.598;2023-04-03T03:38:19;0.30;68.60
4406;DHT22;2216;53.806;11.598;2023-04-03T03:40:47;0.30;68.50
4406;DHT22;2216;53.806;11.598;2023-04-03T03:43:14;0.40;68.50
4406;DHT22;2216;53.806;11.598;2023-04-03T03:45:40;0.40;68.40
4406;DHT22;2216;53.806;11.598;2023-04-03T03:48:06;0.40;68.50
4406;DHT22;2216;53.806;11.598;2023-04-03T03:50:32;0.40;68.40
4406;DHT22;2216;53.806;11.598;2023-04-03T03:52:57;0.50;68.40
4406;DHT22;2216;53.806;11.598;2023-04-03T03:55:23;0.40;68.30
4406;DHT22;2216;53.806;11.598;2023-04-03T03:57:49;0.50;68.20
4406;DHT22;2216;53.806;11.598;2023-04-03T04:00:15;0.50;68.20
4406;DHT22;2216;53.806;11.598;2023-04-03T04:02:41;0.50;68.30
4406;DHT22;2216;53.806;11.598;2023-04-03T04:05:07;0.50;69.00
4406;DHT22;2216;53.806;11.598;2023-04-03T04:07:33;0.50;68.20
4406;DHT22;2216;53.806;11.598;2023-04-03T04:09:58;0.50;68.20
4406;DHT22;2216;53.806;11.598;2023-04-03T04:12:24;0.50;68.20
4406;DHT22;2216;53.806;11.598;2023-04-03T04:14:50;0.50;68.20
4406;DHT22;2216;53.806;11.598;2023-04-03T04:17:16;0.50;68.20
4406;DHT22;2216;53.806;11.598;2023-04-03T04:19:41;0.50;68.20
4406;DHT22;2216;53.806;11.598;2023-04-03T04:22:07;0.50;68.10
4406;DHT22;2216;53.806;11.598;2023-04-03T04:24:33;0.50;68.20
4406;DHT22;2216;53.806;11.598;2023-04-03T04:26:58;0.50;68.10
4406;DHT22;2216;53.806;11.598;2023-04-03T04:29:24;0.50;68.10
4406;DHT22;2216;53.806;11.598;2023-04-03T04:31:50;0.50;68.10
4406;DHT22;2216;53.806;11.598;2023-04-03T04:34:16;0.50;68.10
4406;DHT22;2216;53.806;11.598;2023-04-03T04:36:41;0.50;68.10
4406;DHT22;2216;53.806;11.598;2023-04-03T04:39:07;0.50;68.20
4406;DHT22;2216;53.806;11.598;2023-04-03T04:41:33;0.50;69.00
4406;DHT22;2216;53.806;11.598;2023-04-03T04:43:59;0.50;68.40
4406;DHT22;2216;53.806;11.598;2023-04-03T04:46:25;0.50;68.50
4406;DHT22;2216;53.806;11.598;2023-04-03T04:48:51;0.50;68.50
4406;DHT22;2216;53.806;11.598;2023-04-03T04:51:17;0.50;68.50
4406;DHT22;2216;53.806;11.598;2023-04-03T04:53:43;0.50;68.40
4406;DHT22;2216;53.806;11.598;2023-04-03T04:56:09;0.50;68.30
4406;DHT22;2216;53.806;11.598;2023-04-03T04:58:35;0.60;68.30
4406;DHT22;2216;53.806;11.598;2023-04-03T05:01:06;0.60;68.40
4406;DHT22;2216;53.806;11.598;2023-04-03T05:03:33;0.60;68.60
4406;DHT22;2216;53.806;11.598;2023-04-03T05:05:59;0.60;68.80
4406;DHT22;2216;53.806;11.598;2023-04-03T05:08:25;0.70;68.90
4406;DHT22;2216;53.806;11.598;2023-04-03T05:10:51;0.70;69.20
4406;DHT22;2216;53.806;11.598;2023-04-03T05:13:17;0.80;69.20
4406;DHT22;2216;53.806;11.598;2023-04-03T05:15:42;0.90;69.50
4406;DHT22;2216;53.806;11.598;2023-04-03T05:18:08;0.90;69.70
4406;DHT22;2216;53.806;11.598;2023-04-03T05:20:34;1.10;69.90
4406;DHT22;2216;53.806;11.598;2023-04-03T05:23:00;1.10;70.00
4406;DHT22;2216;53.806;11.598;2023-04-03T05:25:26;1.10;70.00
4406;DHT22;2216;53.806;11.598;2023-04-03T05:27:52;1.40;70.30
4406;DHT22;2216;53.806;11.598;2023-04-03T05:30:18;1.40;70.40
4406;DHT22;2216;53.806;11.598;2023-04-03T05:32:44;1.50;70.50
4406;DHT22;2216;53.806;11.598;2023-04-03T05:35:10;1.70;70.60
4406;DHT22;2216;53.806;11.598;2023-04-03T05:37:36;1.80;70.70
4406;DHT22;2216;53.806;11.598;2023-04-03T05:40:04;1.90;70.80
4406;DHT22;2216;53.806;11.598;2023-04-03T05:42:31;2.00;70.90
4406;DHT22;2216;53.806;11.598;2023-04-03T05:44:56;2.10;70.90
4406;DHT22;2216;53.806;11.598;2023-04-03T05:47:22;2.30;71.00
4406;DHT22;2216;53.806;11.598;2023-04-03T05:49:48;2.30;71.00
4406;DHT22;2216;53.806;11.598;2023-04-03T05:52:21;2.50;70.90
4406;DHT22;2216;53.806;11.598;2023-04-03T05:54:53;2.50;70.80
4406;DHT22;2216;53.806;11.598;2023-04-03T05:57:19;2.60;70.70
4406;DHT22;2216;53.806;11.598;2023-04-03T05:59:46;2.70;70.70
4406;DHT22;2216;53.806;11.598;2023-04-03T06:02:13;2.80;70.50
4406;DHT22;2216;53.806;11.598;2023-04-03T06:04:43;2.90;70.50
4406;DHT22;2216;53.806;11.598;2023-04-03T06:07:16;2.90;70.50
4406;DHT22;2216;53.806;11.598;2023-04-03T06:09:43;3.00;70.50
4406;DHT22;2216;53.806;11.598;2023-04-03T06:12:09;3.10;70.40
4406;DHT22;2216;53.806;11.598;2023-04-03T06:14:35;3.20;70.40
4406;DHT22;2216;53.806;11.598;2023-04-03T06:17:01;3.30;70.40
4406;DHT22;2216;53.806;11.598;2023-04-03T06:19:27;3.40;70.30
4406;DHT22;2216;53.806;11.598;2023-04-03T06:21:53;3.40;70.10
4406;DHT22;2216;53.806;11.598;2023-04-03T06:24:20;3.50;70.00
4406;DHT22;2216;53.806;11.598;2023-04-03T06:26:47;3.50;69.90
4406;DHT22;2216;53.806;11.598;2023-04-03T06:29:14;3.60;69.90
4406;DHT22;2216;53.806;11.598;2023-04-03T06:31:39;3.60;69.70
4406;DHT22;2216;53.806;11.598;2023-04-03T06:34:05;3.80;69.90
4406;DHT22;2216;53.806;11.598;2023-04-03T06:36:32;3.80;69.90
4406;DHT22;2216;53.806;11.598;2023-04-03T06:38:58;3.80;70.40
4406;DHT22;2216;53.806;11.598;2023-04-03T06:41:24;3.80;69.70
4406;DHT22;2216;53.806;11.598;2023-04-03T06:43:51;3.90;69.40
4406;DHT22;2216;53.806;11.598;2023-04-03T06:46:19;3.90;69.20
4406;DHT22;2216;53.806;11.598;2023-04-03T06:48:46;4.00;69.20
4406;DHT22;2216;53.806;11.598;2023-04-03T06:53:47;4.00;69.30
4406;DHT22;2216;53.806;11.598;2023-04-03T06:56:13;4.10;69.40
4406;DHT22;2216;53.806;11.598;2023-04-03T06:58:40;4.10;69.50
4406;DHT22;2216;53.806;11.598;2023-04-03T07:01:07;4.20;69.60
4406;DHT22;2216;53.806;11.598;2023-04-03T07:03:34;4.30;69.40
4406;DHT22;2216;53.806;11.598;2023-04-03T07:06:01;4.30;69.20
4406;DHT22;2216;53.806;11.598;2023-04-03T07:08:26;4.30;68.90
4406;DHT22;2216;53.806;11.598;2023-04-03T07:10:52;4.40;68.90
4406;DHT22;2216;53.806;11.598;2023-04-03T07:13:18;4.40;68.80
4406;DHT22;2216;53.806;11.598;2023-04-03T07:15:43;4.40;68.80
4406;DHT22;2216;53.806;11.598;2023-04-03T07:18:09;4.40;68.30
4406;DHT22;2216;53.806;11.598;2023-04-03T07:20:35;4.40;68.30
4406;DHT22;2216;53.806;11.598;2023-04-03T07:23:01;4.50;68.30
4406;DHT22;2216;53.806;11.598;2023-04-03T07:25:27;4.50;68.50
4406;DHT22;2216;53.806;11.598;2023-04-03T07:27:54;4.60;68.40
4406;DHT22;2216;53.806;11.598;2023-04-03T07:30:20;4.60;68.10
4406;DHT22;2216;53.806;11.598;2023-04-03T07:32:46;4.60;68.10
4406;DHT22;2216;53.806;11.598;2023-04-03T07:35:12;4.60;68.20
4406;DHT22;2216;53.806;11.598;2023-04-03T07:37:38;4.70;68.70
4406;DHT22;2216;53.806;11.598;2023-04-03T07:40:04;4.80;68.40
4406;DHT22;2216;53.806;11.598;2023-04-03T07:42:31;4.90;68.50
4406;DHT22;2216;53.806;11.598;2023-04-03T07:44:56;4.90;68.50
4406;DHT22;2216;53.806;11.598;2023-04-03T07:47:22;5.00;67.70
4406;DHT22;2216;53.806;11.598;2023-04-03T07:49:48;5.10;68.00
4406;DHT22;2216;53.806;11.598;2023-04-03T07:52:14;5.10;67.80
4406;DHT22;2216;53.806;11.598;2023-04-03T07:54:42;5.20;67.50
4406;DHT22;2216;53.806;11.598;2023-04-03T07:57:08;5.20;67.50
4406;DHT22;2216;53.806;11.598;2023-04-03T07:59:34;5.30;67.30
4406;DHT22;2216;53.806;11.598;2023-04-03T08:02:00;5.30;67.00
4406;DHT22;2216;53.806;11.598;2023-04-03T08:04:25;5.40;67.20
4406;DHT22;2216;53.806;11.598;2023-04-03T08:06:52;5.40;67.70
4406;DHT22;2216;53.806;11.598;2023-04-03T08:09:18;5.50;67.90
4406;DHT22;2216;53.806;11.598;2023-04-03T08:11:44;5.50;67.80
4406;DHT22;2216;53.806;11.598;2023-04-03T08:14:11;5.60;67.40
4406;DHT22;2216;53.806;11.598;2023-04-03T08:16:45;5.60;67.30
4406;DHT22;2216;53.806;11.598;2023-04-03T08:19:12;5.60;66.80
4406;DHT22;2216;53.806;11.598;2023-04-03T08:21:40;5.60;67.00
4406;DHT22;2216;53.806;11.598;2023-04-03T08:24:07;5.70;67.10
4406;DHT22;2216;53.806;11.598;2023-04-03T08:26:34;5.80;67.40
4406;DHT22;2216;53.806;11.598;2023-04-03T08:29:00;5.80;66.90
4406;DHT22;2216;53.806;11.598;2023-04-03T08:31:26;5.80;66.70
4406;DHT22;2216;53.806;11.598;2023-04-03T08:33:52;5.90;66.40
4406;DHT22;2216;53.806;11.598;2023-04-03T08:36:19;5.90;67.00
4406;DHT22;2216;53.806;11.598;2023-04-03T08:38:50;6.00;67.10
4406;DHT22;2216;53.806;11.598;2023-04-03T08:41:40;6.10;67.00
4406;DHT22;2216;53.806;11.598;2023-04-03T08:44:44;6.20;67.70
4406;DHT22;2216;53.806;11.598;2023-04-03T08:47:46;6.30;67.90
4406;DHT22;2216;53.806;11.598;2023-04-03T08:50:20;6.40;67.60
4406;DHT22;2216;53.806;11.598;2023-04-03T08:52:55;6.50;67.00
4406;DHT22;2216;53.806;11.598;2023-04-03T08:55:24;6.60;66.80
4406;DHT22;2216;53.806;11.598;2023-04-03T08:58:01;6.70;66.00
4406;DHT22;2216;53.806;11.598;2023-04-03T09:00:51;6.70;66.10
4406;DHT22;2216;53.806;11.598;2023-04-03T09:03:22;6.70;66.30
4406;DHT22;2216;53.806;11.598;2023-04-03T09:06:04;6.70;65.30
4406;DHT22;2216;53.806;11.598;2023-04-03T09:08:40;6.70;65.40
4406;DHT22;2216;53.806;11.598;2023-04-03T09:11:20;6.70;65.90
4406;DHT22;2216;53.806;11.598;2023-04-03T09:14:09;6.80;65.90
4406;DHT22;2216;53.806;11.598;2023-04-03T09:19:38;6.90;64.60
4406;DHT22;2216;53.806;11.598;2023-04-03T09:22:27;7.10;65.10
4406;DHT22;2216;53.806;11.598;2023-04-03T09:25:13;7.10;65.00
4406;DHT22;2216;53.806;11.598;2023-04-03T09:27:41;7.10;65.00
4406;DHT22;2216;53.806;11.598;2023-04-03T09:30:19;7.20;65.70
4406;DHT22;2216;53.806;11.598;2023-04-03T09:32:50;7.30;64.20
4406;DHT22;2216;53.806;11.598;2023-04-03T09:35:37;7.20;64.00
4406;DHT22;2216;53.806;11.598;2023-04-03T09:40:47;7.00;61.80
4406;DHT22;2216;53.806;11.598;2023-04-03T09:43:30;6.90;62.30
4406;DHT22;2216;53.806;11.598;2023-04-03T09:46:17;6.70;62.20
4406;DHT22;2216;53.806;11.598;2023-04-03T09:49:00;6.60;62.30
4406;DHT22;2216;53.806;11.598;2023-04-03T09:51:28;6.50;62.10
4406;DHT22;2216;53.806;11.598;2023-04-03T09:53:55;6.40;62.50
4406;DHT22;2216;53.806;11.598;2023-04-03T09:56:28;6.40;63.10
4406;DHT22;2216;53.806;11.598;2023-04-03T10:01:35;6.50;63.70
4406;DHT22;2216;53.806;11.598;2023-04-03T10:04:22;6.60;64.50
4406;DHT22;2216;53.806;11.598;2023-04-03T10:06:52;6.70;63.50
4406;DHT22;2216;53.806;11.598;2023-04-03T10:09:28;6.70;63.50
4406;DHT22;2216;53.806;11.598;2023-04-03T10:12:04;6.60;62.10
4406;DHT22;2216;53.806;11.598;2023-04-03T10:14:37;6.60;62.30
4406;DHT22;2216;53.806;11.598;2023-04-03T10:17:16;6.60;61.80
4406;DHT22;2216;53.806;11.598;2023-04-03T10:19:51;6.70;62.50
4406;DHT22;2216;53.806;11.598;2023-04-03T10:25:31;7.00;63.00
4406;DHT22;2216;53.806;11.598;2023-04-03T10:28:05;7.10;63.50
4406;DHT22;2216;53.806;11.598;2023-04-03T10:30:46;7.20;61.00
4406;DHT22;2216;53.806;11.598;2023-04-03T10:36:16;7.20;61.10
4406;DHT22;2216;53.806;11.598;2023-04-03T10:38:57;7.10;59.90
4406;DHT22;2216;53.806;11.598;2023-04-03T10:41:47;7.10;60.90
4406;DHT22;2216;53.806;11.598;2023-04-03T10:47:32;7.20;60.30
4406;DHT22;2216;53.806;11.598;2023-04-03T10:53:30;7.00;60.40
4406;DHT22;2216;53.806;11.598;2023-04-03T10:56:18;6.90;60.30
4406;DHT22;2216;53.806;11.598;2023-04-03T10:58:57;6.90;60.40
4406;DHT22;2216;53.806;11.598;2023-04-03T11:01:33;6.80;59.30
4406;DHT22;2216;53.806;11.598;2023-04-03T11:04:00;6.80;59.60
4406;DHT22;2216;53.806;11.598;2023-04-03T11:07:03;6.90;59.70
4406;DHT22;2216;53.806;11.598;2023-04-03T11:09:35;7.00;61.40
4406;DHT22;2216;53.806;11.598;2023-04-03T11:12:26;7.10;59.20
4406;DHT22;2216;53.806;11.598;2023-04-03T11:14:56;7.30;59.10
4406;DHT22;2216;53.806;11.598;2023-04-03T11:17:33;7.50;58.60
4406;DHT22;2216;53.806;11.598;2023-04-03T11:22:58;7.70;60.20
4406;DHT22;2216;53.806;11.598;2023-04-03T11:25:34;7.80;59.90
4406;DHT22;2216;53.806;11.598;2023-04-03T11:28:05;8.00;59.80
4406;DHT22;2216;53.806;11.598;2023-04-03T11:30:47;8.00;58.00
4406;DHT22;2216;53.806;11.598;2023-04-03T11:33:32;8.10;59.40
4406;DHT22;2216;53.806;11.598;2023-04-03T11:36:48;8.20;58.40
4406;DHT22;2216;53.806;11.598;2023-04-03T11:39:23;8.30;58.70
4406;DHT22;2216;53.806;11.598;2023-04-03T11:41:50;8.40;58.50
4406;DHT22;2216;53.806;11.598;2023-04-03T11:44:31;8.50;57.90
4406;DHT22;2216;53.806;11.598;2023-04-03T11:46:59;8.50;57.80
4406;DHT22;2216;53.806;11.598;2023-04-03T11:50:04;8.50;56.70
4406;DHT22;2216;53.806;11.598;2023-04-03T12:00:56;8.60;58.20
4406;DHT22;2216;53.806;11.598;2023-04-03T12:19:27;8.50;54.70
4406;DHT22;2216;53.806;11.598;2023-04-03T12:24:29;8.50;56.90
4406;DHT22;2216;53.806;11.598;2023-04-03T12:30:12;8.60;54.20
4406;DHT22;2216;53.806;11.598;2023-04-03T12:35:47;8.50;54.70
4406;DHT22;2216;53.806;11.598;2023-04-03T12:41:14;8.50;54.80
4406;DHT22;2216;53.806;11.598;2023-04-03T12:47:00;8.60;55.00
4406;DHT22;2216;53.806;11.598;2023-04-03T12:49:33;8.60;56.00
4406;DHT22;2216;53.806;11.598;2023-04-03T12:52:37;8.60;55.60
4406;DHT22;2216;53.806;11.598;2023-04-03T12:55:19;8.60;54.20
4406;DHT22;2216;53.806;11.598;2023-04-03T12:57:46;8.60;54.50
4406;DHT22;2216;53.806;11.598;2023-04-03T13:00:33;8.50;53.30
4406;DHT22;2216;53.806;11.598;2023-04-03T13:03:04;8.50;52.90
4406;DHT22;2216;53.806;11.598;2023-04-03T13:05:32;8.40;54.90
4406;DHT22;2216;53.806;11.598;2023-04-03T13:08:10;8.40;53.90
4406;DHT22;2216;53.806;11.598;2023-04-03T13:11:10;8.40;53.10
4406;DHT22;2216;53.806;11.598;2023-04-03T13:13:37;8.50;52.70
4406;DHT22;2216;53.806;11.598;2023-04-03T13:16:11;8.50;54.20
4406;DHT22;2216;53.806;11.598;2023-04-03T13:18:39;8.50;52.90
4406;DHT22;2216;53.806;11.598;2023-04-03T13:21:15;8.50;51.80
4406;DHT22;2216;53.806;11.598;2023-04-03T13:23:45;8.50;51.20
4406;DHT22;2216;53.806;11.598;2023-04-03T13:26:16;8.40;52.10
4406;DHT22;2216;53.806;11.598;2023-04-03T13:28:44;8.40;52.30
4406;DHT22;2216;53.806;11.598;2023-04-03T13:34:03;8.30;52.60
4406;DHT22;2216;53.806;11.598;2023-04-03T13:36:39;8.20;52.10
4406;DHT22;2216;53.806;11.598;2023-04-03T13:39:39;8.30;53.90
4406;DHT22;2216;53.806;11.598;2023-04-03T13:42:16;8.30;53.40
4406;DHT22;2216;53.806;11.598;2023-04-03T13:45:19;8.30;52.30
4406;DHT22;2216;53.806;11.598;2023-04-03T13:47:49;8.40;52.90
4406;DHT22;2216;53.806;11.598;2023-04-03T13:50:21;8.40;53.30
4406;DHT22;2216;53.806;11.598;2023-04-03T13:52:55;8.40;53.80
4406;DHT22;2216;53.806;11.598;2023-04-03T13:55:30;8.40;53.30
4406;DHT22;2216;53.806;11.598;2023-04-03T13:58:00;8.40;52.40
4406;DHT22;2216;53.806;11.598;2023-04-03T14:00:54;8.30;53.20
4406;DHT22;2216;53.806;11.598;2023-04-03T14:03:46;8.50;54.50
4406;DHT22;2216;53.806;11.598;2023-04-03T14:06:18;8.40;52.10
4406;DHT22;2216;53.806;11.598;2023-04-03T14:08:45;8.40;51.90
4406;DHT22;2216;53.806;11.598;2023-04-03T14:11:20;8.30;53.90
4406;DHT22;2216;53.806;11.598;2023-04-03T14:13:49;8.30;54.10
4406;DHT22;2216;53.806;11.598;2023-04-03T14:16:19;8.30;54.60
4406;DHT22;2216;53.806;11.598;2023-04-03T14:18:47;8.30;53.50
4406;DHT22;2216;53.806;11.598;2023-04-03T14:21:16;8.30;54.40
4406;DHT22;2216;53.806;11.598;2023-04-03T14:23:42;8.30;54.20
4406;DHT22;2216;53.806;11.598;2023-04-03T14:26:28;8.30;54.00
4406;DHT22;2216;53.806;11.598;2023-04-03T14:28:55;8.30;54.50
4406;DHT22;2216;53.806;11.598;2023-04-03T14:31:21;8.20;53.90
4406;DHT22;2216;53.806;11.598;2023-04-03T14:33:47;8.20;54.20
4406;DHT22;2216;53.806;11.598;2023-04-03T14:36:16;8.20;53.40
4406;DHT22;2216;53.806;11.598;2023-04-03T14:38:46;8.20;53.10
4406;DHT22;2216;53.806;11.598;2023-04-03T14:41:14;8.10;54.20
4406;DHT22;2216;53.806;11.598;2023-04-03T14:43:42;8.10;53.60
4406;DHT22;2216;53.806;11.598;2023-04-03T14:46:14;8.00;54.00
4406;DHT22;2216;53.806;11.598;2023-04-03T14:48:42;8.00;53.20
4406;DHT22;2216;53.806;11.598;2023-04-03T14:51:12;7.90;54.50
4406;DHT22;2216;53.806;11.598;2023-04-03T14:53:40;7.90;53.50
4406;DHT22;2216;53.806;11.598;2023-04-03T14:56:19;7.90;54.00
4406;DHT22;2216;53.806;11.598;2023-04-03T14:58:48;7.80;54.20
4406;DHT22;2216;53.806;11.598;2023-04-03T15:01:15;7.80;53.70
4406;DHT22;2216;53.806;11.598;2023-04-03T15:03:42;7.80;54.10
4406;DHT22;2216;53.806;11.598;2023-04-03T15:06:10;7.70;52.50
4406;DHT22;2216;53.806;11.598;2023-04-03T15:08:37;7.70;52.90
4406;DHT22;2216;53.806;11.598;2023-04-03T15:11:03;7.60;54.00
4406;DHT22;2216;53.806;11.598;2023-04-03T15:13:29;7.60;52.90
4406;DHT22;2216;53.806;11.598;2023-04-03T15:15:55;7.60;52.90
4406;DHT22;2216;53.806;11.598;2023-04-03T15:18:25;7.50;54.10
4406;DHT22;2216;53.806;11.598;2023-04-03T15:20:53;7.50;53.50
4406;DHT22;2216;53.806;11.598;2023-04-03T15:23:19;7.50;53.00
4406;DHT22;2216;53.806;11.598;2023-04-03T15:25:47;7.50;53.60
4406;DHT22;2216;53.806;11.598;2023-04-03T15:28:23;7.40;52.80
4406;DHT22;2216;53.806;11.598;2023-04-03T15:30:54;7.40;53.50
4406;DHT22;2216;53.806;11.598;2023-04-03T15:33:19;7.40;52.20
4406;DHT22;2216;53.806;11.598;2023-04-03T15:35:45;7.20;51.40
4406;DHT22;2216;53.806;11.598;2023-04-03T15:38:11;7.20;53.30
4406;DHT22;2216;53.806;11.598;2023-04-03T15:40:37;7.20;53.70
4406;DHT22;2216;53.806;11.598;2023-04-03T15:43:04;7.10;53.40
4406;DHT22;2216;53.806;11.598;2023-04-03T15:45:31;7.10;53.00
4406;DHT22;2216;53.806;11.598;2023-04-03T15:47:57;7.10;53.40
4406;DHT22;2216;53.806;11.598;2023-04-03T15:50:23;7.10;54.80
4406;DHT22;2216;53.806;11.598;2023-04-03T15:52:50;7.00;53.20
4406;DHT22;2216;53.806;11.598;2023-04-03T15:55:21;7.00;54.00
4406;DHT22;2216;53.806;11.598;2023-04-03T15:57:47;7.00;53.80
4406;DHT22;2216;53.806;11.598;2023-04-03T16:00:13;7.00;54.30
4406;DHT22;2216;53.806;11.598;2023-04-03T16:02:39;7.00;54.80
4406;DHT22;2216;53.806;11.598;2023-04-03T16:05:06;7.10;54.10
4406;DHT22;2216;53.806;11.598;2023-04-03T16:07:32;6.90;53.90
4406;DHT22;2216;53.806;11.598;2023-04-03T16:09:58;6.90;54.60
4406;DHT22;2216;53.806;11.598;2023-04-03T16:12:24;6.90;53.80
4406;DHT22;2216;53.806;11.598;2023-04-03T16:14:49;6.80;54.80
4406;DHT22;2216;53.806;11.598;2023-04-03T16:17:15;6.80;54.60
4406;DHT22;2216;53.806;11.598;2023-04-03T16:19:41;6.70;54.20
4406;DHT22;2216;53.806;11.598;2023-04-03T16:22:07;6.70;54.20
4406;DHT22;2216;53.806;11.598;2023-04-03T16:24:32;6.70;54.70
4406;DHT22;2216;53.806;11.598;2023-04-03T16:26:58;6.60;54.70
4406;DHT22;2216;53.806;11.598;2023-04-03T16:29:24;6.40;54.90
4406;DHT22;2216;53.806;11.598;2023-04-03T16:31:49;6.50;54.30
4406;DHT22;2216;53.806;11.598;2023-04-03T16:34:15;6.40;54.60
4406;DHT22;2216;53.806;11.598;2023-04-03T16:36:41;6.40;55.20
4406;DHT22;2216;53.806;11.598;2023-04-03T16:39:07;6.40;55.10
4406;DHT22;2216;53.806;11.598;2023-04-03T16:41:35;6.30;55.30
4406;DHT22;2216;53.806;11.598;2023-04-03T16:44:01;6.30;54.80
4406;DHT22;2216;53.806;11.598;2023-04-03T16:46:26;6.20;55.00
4406;DHT22;2216;53.806;11.598;2023-04-03T16:48:52;6.10;55.00
4406;DHT22;2216;53.806;11.598;2023-04-03T16:51:18;6.10;55.00
4406;DHT22;2216;53.806;11.598;2023-04-03T16:53:43;6.10;54.80
4406;DHT22;2216;53.806;11.598;2023-04-03T16:56:09;6.00;54.90
4406;DHT22;2216;53.806;11.598;2023-04-03T16:58:35;5.90;55.10
4406;DHT22;2216;53.806;11.598;2023-04-03T17:01:14;5.90;55.20
4406;DHT22;2216;53.806;11.598;2023-04-03T17:03:41;5.80;54.90
4406;DHT22;2216;53.806;11.598;2023-04-03T17:06:07;5.80;54.80
4406;DHT22;2216;53.806;11.598;2023-04-03T17:08:41;5.70;54.80
4406;DHT22;2216;53.806;11.598;2023-04-03T17:11:08;5.60;55.00
4406;DHT22;2216;53.806;11.598;2023-04-03T17:13:34;5.50;55.00
4406;DHT22;2216;53.806;11.598;2023-04-03T17:16:01;5.50;55.10
4406;DHT22;2216;53.806;11.598;2023-04-03T17:18:30;5.40;55.20
4406;DHT22;2216;53.806;11.598;2023-04-03T17:20:56;5.40;55.50
4406;DHT22;2216;53.806;11.598;2023-04-03T17:23:24;5.20;55.40
4406;DHT22;2216;53.806;11.598;2023-04-03T17:25:51;5.30;55.40
4406;DHT22;2216;53.806;11.598;2023-04-03T17:28:18;5.10;55.70
4406;DHT22;2216;53.806;11.598;2023-04-03T17:30:44;5.10;55.80
4406;DHT22;2216;53.806;11.598;2023-04-03T17:33:09;5.00;55.80
4406;DHT22;2216;53.806;11.598;2023-04-03T17:35:35;4.90;55.90
4406;DHT22;2216;53.806;11.598;2023-04-03T17:38:01;4.80;55.90